WIZ537 LTFM-LGAV
Flight info
| Callsign | WIZ537 |
|---|---|
| Flight time | 1h 0m |
| Altitude | 38000 |
| Route | IVGUS1D/35L IVGUS UY226 BIG UN604 OGSIL |
| Aircraft | A20N/M-SDE2E3FGHIRWXY/LB1 |
Departure
| Time | 2026-05-07 14:11 |
|---|---|
| Airport | İstanbul Airport (LTFM) |
Arrival
| Time | 2026-05-07 15:11 |
|---|---|
| Airport | Athens Eleftherios Venizelos International Airport (LGAV) |
| Time | Latitude | Longitude | Altitude | Speed | Heading |
|---|---|---|---|---|---|
| 2026-05-07 13:43 | 41.26586 | 28.72017 | 176 ft | 0 kts | 179° |
| 2026-05-07 14:03 | 41.26561 | 28.72018 | 176 ft | 7 kts | 178° |
| 2026-05-07 14:03 | 41.26520 | 28.72056 | 176 ft | 8 kts | 113° |
| 2026-05-07 14:03 | 41.26513 | 28.72094 | 176 ft | 0 kts | 98° |
| 2026-05-07 14:04 | 41.26513 | 28.72096 | 176 ft | 0 kts | 98° |
| 2026-05-07 14:04 | 41.26511 | 28.72107 | 176 ft | 3 kts | 98° |
| 2026-05-07 14:04 | 41.26454 | 28.72171 | 176 ft | 14 kts | 171° |
| 2026-05-07 14:04 | 41.26387 | 28.72176 | 176 ft | 11 kts | 177° |
| 2026-05-07 14:05 | 41.26300 | 28.72179 | 176 ft | 13 kts | 180° |
| 2026-05-07 14:05 | 41.26290 | 28.72179 | 176 ft | 0 kts | 180° |
| 2026-05-07 14:05 | 41.26252 | 28.72182 | 176 ft | 13 kts | 172° |
| 2026-05-07 14:06 | 41.26204 | 28.72224 | 176 ft | 0 kts | 107° |
| 2026-05-07 14:07 | 41.26198 | 28.72268 | 176 ft | 14 kts | 95° |
| 2026-05-07 14:07 | 41.26199 | 28.72435 | 175 ft | 18 kts | 89° |
| 2026-05-07 14:07 | 41.26248 | 28.72521 | 175 ft | 0 kts | 6° |
| 2026-05-07 14:10 | 41.26379 | 28.72520 | 177 ft | 52 kts | 359° |
| 2026-05-07 14:10 | 41.26969 | 28.72511 | 176 ft | 115 kts | 359° |
| 2026-05-07 14:11 | 41.27956 | 28.72483 | 209 ft | 169 kts | 1° |
| 2026-05-07 14:11 | 41.29221 | 28.72433 | 719 ft | 197 kts | 1° |
| 2026-05-07 14:11 | 41.30621 | 28.72222 | 1589 ft | 207 kts | 345° |
| 2026-05-07 14:11 | 41.32106 | 28.71987 | 2699 ft | 222 kts | 358° |
| 2026-05-07 14:12 | 41.33645 | 28.72058 | 3615 ft | 241 kts | 0° |
| 2026-05-07 14:12 | 41.35417 | 28.72178 | 4189 ft | 276 kts | 360° |
| 2026-05-07 14:12 | 41.37464 | 28.72245 | 4317 ft | 300 kts | 358° |
| 2026-05-07 14:12 | 41.39488 | 28.72254 | 4421 ft | 281 kts | 356° |
| 2026-05-07 14:13 | 41.41300 | 28.71741 | 4532 ft | 259 kts | 332° |
| 2026-05-07 14:13 | 41.42735 | 28.70293 | 4636 ft | 260 kts | 306° |
| 2026-05-07 14:13 | 41.43483 | 28.68142 | 4751 ft | 257 kts | 279° |
| 2026-05-07 14:13 | 41.43350 | 28.65785 | 4857 ft | 259 kts | 251° |
| 2026-05-07 14:14 | 41.42352 | 28.63781 | 4958 ft | 264 kts | 226° |
| 2026-05-07 14:14 | 41.40972 | 28.62156 | 5057 ft | 265 kts | 223° |
| 2026-05-07 14:14 | 41.39560 | 28.60568 | 5163 ft | 266 kts | 223° |
| 2026-05-07 14:14 | 41.38623 | 28.59519 | 5220 ft | 266 kts | 223° |
| 2026-05-07 14:15 | 41.36731 | 28.57387 | 5346 ft | 267 kts | 223° |
| 2026-05-07 14:15 | 41.35332 | 28.55804 | 5450 ft | 267 kts | 223° |
| 2026-05-07 14:15 | 41.33916 | 28.54197 | 5548 ft | 268 kts | 223° |
| 2026-05-07 14:15 | 41.32499 | 28.52587 | 5648 ft | 268 kts | 223° |
| 2026-05-07 14:16 | 41.31083 | 28.50982 | 5745 ft | 267 kts | 223° |
| 2026-05-07 14:16 | 41.29658 | 28.49380 | 5846 ft | 268 kts | 223° |
| 2026-05-07 14:16 | 41.28697 | 28.48305 | 5906 ft | 267 kts | 223° |
| 2026-05-07 14:16 | 41.27288 | 28.46722 | 6016 ft | 269 kts | 223° |
| 2026-05-07 14:17 | 41.25863 | 28.45125 | 6104 ft | 267 kts | 223° |
| 2026-05-07 14:17 | 41.24433 | 28.43523 | 6211 ft | 269 kts | 223° |
| 2026-05-07 14:17 | 41.22993 | 28.41911 | 6388 ft | 271 kts | 223° |
| 2026-05-07 14:17 | 41.21541 | 28.40286 | 6998 ft | 275 kts | 223° |
| 2026-05-07 14:18 | 41.20082 | 28.38654 | 8062 ft | 275 kts | 223° |
| 2026-05-07 14:18 | 41.18601 | 28.36996 | 9011 ft | 281 kts | 222° |
| 2026-05-07 14:18 | 41.17097 | 28.35317 | 10003 ft | 285 kts | 222° |
| 2026-05-07 14:18 | 41.15551 | 28.33583 | 10659 ft | 301 kts | 223° |
| 2026-05-07 14:19 | 41.13894 | 28.31718 | 10998 ft | 325 kts | 222° |
| 2026-05-07 14:19 | 41.12112 | 28.29733 | 11505 ft | 340 kts | 221° |
| 2026-05-07 14:19 | 41.10285 | 28.27705 | 12369 ft | 345 kts | 221° |
| 2026-05-07 14:19 | 41.08431 | 28.25648 | 13250 ft | 350 kts | 221° |
| 2026-05-07 14:20 | 41.06580 | 28.23589 | 14034 ft | 355 kts | 221° |
| 2026-05-07 14:20 | 41.04655 | 28.21439 | 14779 ft | 359 kts | 222° |
| 2026-05-07 14:20 | 41.02732 | 28.19294 | 15538 ft | 363 kts | 222° |
| 2026-05-07 14:20 | 41.00785 | 28.17128 | 16279 ft | 368 kts | 222° |
| 2026-05-07 14:21 | 40.98842 | 28.14973 | 17004 ft | 372 kts | 222° |
| 2026-05-07 14:21 | 40.96843 | 28.12763 | 17723 ft | 376 kts | 221° |
| 2026-05-07 14:21 | 40.94810 | 28.10532 | 18441 ft | 381 kts | 222° |
| 2026-05-07 14:21 | 40.92761 | 28.08284 | 19048 ft | 385 kts | 222° |
| 2026-05-07 14:22 | 40.90692 | 28.06008 | 19668 ft | 388 kts | 222° |
| 2026-05-07 14:22 | 40.88607 | 28.03710 | 20308 ft | 392 kts | 223° |
| 2026-05-07 14:22 | 40.86500 | 28.01385 | 20914 ft | 396 kts | 223° |
| 2026-05-07 14:22 | 40.84376 | 27.99043 | 21541 ft | 399 kts | 223° |
| 2026-05-07 14:23 | 40.82236 | 27.96679 | 22123 ft | 403 kts | 224° |
| 2026-05-07 14:23 | 40.80077 | 27.94276 | 22702 ft | 408 kts | 224° |
| 2026-05-07 14:23 | 40.77896 | 27.91858 | 23289 ft | 412 kts | 224° |
| 2026-05-07 14:23 | 40.75687 | 27.89421 | 23828 ft | 416 kts | 223° |
| 2026-05-07 14:24 | 40.73458 | 27.86972 | 24366 ft | 418 kts | 223° |
| 2026-05-07 14:24 | 40.71219 | 27.84520 | 24893 ft | 420 kts | 223° |
| 2026-05-07 14:24 | 40.68995 | 27.82088 | 25391 ft | 422 kts | 224° |
| 2026-05-07 14:24 | 40.66727 | 27.79609 | 25879 ft | 425 kts | 224° |
| 2026-05-07 14:25 | 40.64445 | 27.77113 | 26369 ft | 427 kts | 224° |
| 2026-05-07 14:25 | 40.62153 | 27.74606 | 26827 ft | 430 kts | 224° |
| 2026-05-07 14:25 | 40.59844 | 27.72085 | 27285 ft | 432 kts | 224° |
| 2026-05-07 14:25 | 40.57523 | 27.69553 | 27729 ft | 435 kts | 224° |
| 2026-05-07 14:26 | 40.55186 | 27.67005 | 28136 ft | 438 kts | 224° |
| 2026-05-07 14:26 | 40.52830 | 27.64439 | 28541 ft | 440 kts | 224° |
| 2026-05-07 14:26 | 40.50465 | 27.61867 | 28953 ft | 443 kts | 224° |
| 2026-05-07 14:26 | 40.48084 | 27.59282 | 29333 ft | 445 kts | 224° |
| 2026-05-07 14:27 | 40.45687 | 27.56681 | 29733 ft | 447 kts | 224° |
| 2026-05-07 14:27 | 40.43274 | 27.54067 | 30109 ft | 450 kts | 224° |
| 2026-05-07 14:27 | 40.40874 | 27.51469 | 30443 ft | 452 kts | 224° |
| 2026-05-07 14:27 | 40.38446 | 27.48840 | 30803 ft | 453 kts | 224° |
| 2026-05-07 14:28 | 40.36012 | 27.46209 | 31192 ft | 453 kts | 223° |
| 2026-05-07 14:28 | 40.33581 | 27.43585 | 31675 ft | 451 kts | 223° |
| 2026-05-07 14:28 | 40.31162 | 27.40978 | 32169 ft | 449 kts | 223° |
| 2026-05-07 14:28 | 40.28758 | 27.38387 | 32657 ft | 446 kts | 223° |
| 2026-05-07 14:29 | 40.26362 | 27.35807 | 33158 ft | 444 kts | 224° |
| 2026-05-07 14:29 | 40.23987 | 27.33251 | 33632 ft | 441 kts | 223° |
| 2026-05-07 14:29 | 40.21619 | 27.30707 | 34101 ft | 439 kts | 223° |
| 2026-05-07 14:29 | 40.19262 | 27.28178 | 34461 ft | 438 kts | 223° |
| 2026-05-07 14:30 | 40.16832 | 27.25834 | 34760 ft | 440 kts | 219° |
| 2026-05-07 14:30 | 40.14324 | 27.23536 | 35066 ft | 440 kts | 219° |
| 2026-05-07 14:30 | 40.11823 | 27.21233 | 35376 ft | 439 kts | 219° |
| 2026-05-07 14:30 | 40.09328 | 27.18936 | 35665 ft | 439 kts | 219° |
| 2026-05-07 14:31 | 40.06826 | 27.16636 | 35911 ft | 440 kts | 219° |
| 2026-05-07 14:31 | 40.04326 | 27.14338 | 36181 ft | 440 kts | 219° |
| 2026-05-07 14:31 | 40.01822 | 27.12041 | 36463 ft | 439 kts | 219° |
| 2026-05-07 14:31 | 39.99317 | 27.09746 | 36730 ft | 439 kts | 219° |
| 2026-05-07 14:32 | 39.96817 | 27.07458 | 37003 ft | 439 kts | 219° |
| 2026-05-07 14:32 | 39.94317 | 27.05172 | 37244 ft | 438 kts | 219° |
| 2026-05-07 14:32 | 39.91819 | 27.02890 | 37487 ft | 439 kts | 219° |
| 2026-05-07 14:32 | 39.89321 | 27.00610 | 37701 ft | 439 kts | 219° |
| 2026-05-07 14:33 | 39.86820 | 26.98328 | 37933 ft | 438 kts | 219° |
| 2026-05-07 14:33 | 39.84354 | 26.96082 | 38089 ft | 438 kts | 219° |
| 2026-05-07 14:33 | 39.81857 | 26.93810 | 38121 ft | 437 kts | 219° |
| 2026-05-07 14:34 | 39.76874 | 26.89279 | 38123 ft | 436 kts | 219° |
| 2026-05-07 14:34 | 39.71891 | 26.84757 | 38126 ft | 436 kts | 219° |
| 2026-05-07 14:35 | 39.66933 | 26.80270 | 38122 ft | 435 kts | 219° |
| 2026-05-07 14:35 | 39.61951 | 26.75772 | 38130 ft | 436 kts | 219° |
| 2026-05-07 14:36 | 39.56961 | 26.71278 | 38142 ft | 437 kts | 218° |
| 2026-05-07 14:36 | 39.51955 | 26.66785 | 38142 ft | 438 kts | 219° |
| 2026-05-07 14:37 | 39.46981 | 26.62316 | 38140 ft | 438 kts | 219° |
| 2026-05-07 14:37 | 39.39473 | 26.55577 | 38127 ft | 435 kts | 219° |
| 2026-05-07 14:38 | 39.34491 | 26.51114 | 38127 ft | 436 kts | 219° |
| 2026-05-07 14:38 | 39.29265 | 26.47051 | 38125 ft | 439 kts | 214° |
| 2026-05-07 14:39 | 39.24202 | 26.42736 | 38125 ft | 432 kts | 224° |
| 2026-05-07 14:39 | 39.19941 | 26.37428 | 38122 ft | 426 kts | 234° |
| 2026-05-07 14:40 | 39.16239 | 26.31479 | 38126 ft | 425 kts | 236° |
| 2026-05-07 14:40 | 39.12531 | 26.25533 | 38130 ft | 426 kts | 235° |
| 2026-05-07 14:41 | 39.08825 | 26.19617 | 37909 ft | 423 kts | 236° |
| 2026-05-07 14:41 | 39.06982 | 26.16678 | 37634 ft | 422 kts | 236° |
| 2026-05-07 14:41 | 39.05134 | 26.13728 | 37265 ft | 423 kts | 235° |
| 2026-05-07 14:42 | 39.03283 | 26.10778 | 36992 ft | 423 kts | 235° |
| 2026-05-07 14:42 | 39.01435 | 26.07837 | 36729 ft | 424 kts | 235° |
| 2026-05-07 14:42 | 38.99604 | 26.04925 | 36472 ft | 424 kts | 235° |
| 2026-05-07 14:42 | 38.97746 | 26.01973 | 36215 ft | 425 kts | 235° |
| 2026-05-07 14:43 | 38.95885 | 25.99022 | 35948 ft | 426 kts | 235° |
| 2026-05-07 14:43 | 38.94018 | 25.96062 | 35699 ft | 427 kts | 235° |
| 2026-05-07 14:43 | 38.92144 | 25.93090 | 35453 ft | 429 kts | 234° |
| 2026-05-07 14:43 | 38.90256 | 25.90101 | 35206 ft | 430 kts | 234° |
| 2026-05-07 14:44 | 38.88371 | 25.87120 | 34959 ft | 431 kts | 234° |
| 2026-05-07 14:44 | 38.86476 | 25.84126 | 34723 ft | 432 kts | 234° |
| 2026-05-07 14:44 | 38.84593 | 25.81153 | 34480 ft | 433 kts | 234° |
| 2026-05-07 14:44 | 38.82686 | 25.78143 | 34242 ft | 434 kts | 234° |
| 2026-05-07 14:45 | 38.80782 | 25.75137 | 33977 ft | 436 kts | 233° |
| 2026-05-07 14:45 | 38.78861 | 25.72108 | 33703 ft | 438 kts | 233° |
| 2026-05-07 14:45 | 38.76963 | 25.69126 | 33440 ft | 438 kts | 233° |
| 2026-05-07 14:45 | 38.75035 | 25.66104 | 33170 ft | 438 kts | 233° |
| 2026-05-07 14:46 | 38.73109 | 25.63084 | 32854 ft | 439 kts | 233° |
| 2026-05-07 14:46 | 38.71172 | 25.60049 | 32248 ft | 440 kts | 233° |
| 2026-05-07 14:46 | 38.69227 | 25.57001 | 31414 ft | 443 kts | 233° |
| 2026-05-07 14:46 | 38.67265 | 25.53928 | 30431 ft | 448 kts | 233° |
| 2026-05-07 14:47 | 38.65286 | 25.50831 | 29343 ft | 451 kts | 233° |
| 2026-05-07 14:47 | 38.63291 | 25.47716 | 28324 ft | 453 kts | 233° |
| 2026-05-07 14:47 | 38.61297 | 25.44606 | 27407 ft | 451 kts | 233° |
| 2026-05-07 14:47 | 38.59310 | 25.41509 | 26524 ft | 450 kts | 233° |
| 2026-05-07 14:48 | 38.57330 | 25.38422 | 25651 ft | 448 kts | 233° |
| 2026-05-07 14:48 | 38.55364 | 25.35355 | 24086 ft | 457 kts | 233° |
| 2026-05-07 14:48 | 38.53344 | 25.32168 | 22799 ft | 463 kts | 233° |
| 2026-05-07 14:48 | 38.51331 | 25.29044 | 21842 ft | 458 kts | 233° |
| 2026-05-07 14:49 | 38.49323 | 25.25948 | 21072 ft | 448 kts | 233° |
| 2026-05-07 14:49 | 38.47354 | 25.22916 | 20329 ft | 437 kts | 233° |
| 2026-05-07 14:49 | 38.45449 | 25.19986 | 19604 ft | 419 kts | 233° |
| 2026-05-07 14:49 | 38.43625 | 25.17176 | 18892 ft | 404 kts | 233° |
| 2026-05-07 14:50 | 38.41862 | 25.14452 | 18193 ft | 390 kts | 233° |
| 2026-05-07 14:50 | 38.40184 | 25.11860 | 17875 ft | 367 kts | 233° |
| 2026-05-07 14:50 | 38.38605 | 25.09425 | 17643 ft | 345 kts | 233° |
| 2026-05-07 14:50 | 38.37121 | 25.07140 | 17445 ft | 325 kts | 234° |
| 2026-05-07 14:51 | 38.35722 | 25.04987 | 17274 ft | 306 kts | 234° |
| 2026-05-07 14:51 | 38.34406 | 25.02962 | 17059 ft | 289 kts | 234° |
| 2026-05-07 14:51 | 38.33140 | 25.01009 | 16595 ft | 283 kts | 234° |
| 2026-05-07 14:51 | 38.31912 | 24.99115 | 16099 ft | 278 kts | 234° |
| 2026-05-07 14:52 | 38.30685 | 24.97224 | 15602 ft | 276 kts | 234° |
| 2026-05-07 14:52 | 38.29455 | 24.95329 | 15140 ft | 278 kts | 234° |
| 2026-05-07 14:52 | 38.28229 | 24.93447 | 14851 ft | 276 kts | 233° |
| 2026-05-07 14:52 | 38.26716 | 24.91899 | 14432 ft | 289 kts | 208° |
| 2026-05-07 14:53 | 38.24749 | 24.91364 | 14328 ft | 295 kts | 182° |
| 2026-05-07 14:53 | 38.22728 | 24.91968 | 14236 ft | 305 kts | 156° |
| 2026-05-07 14:53 | 38.21045 | 24.93623 | 14147 ft | 310 kts | 129° |
| 2026-05-07 14:53 | 38.20047 | 24.96026 | 14115 ft | 309 kts | 103° |
| 2026-05-07 14:54 | 38.19763 | 24.98732 | 14106 ft | 310 kts | 98° |
| 2026-05-07 14:54 | 38.19009 | 25.01278 | 14113 ft | 309 kts | 124° |
| 2026-05-07 14:54 | 38.17532 | 25.03192 | 14113 ft | 301 kts | 150° |
| 2026-05-07 14:54 | 38.15603 | 25.04131 | 14114 ft | 296 kts | 176° |
| 2026-05-07 14:55 | 38.13588 | 25.03949 | 14118 ft | 289 kts | 202° |
| 2026-05-07 14:55 | 38.11880 | 25.02706 | 14117 ft | 281 kts | 227° |
| 2026-05-07 14:55 | 38.10683 | 25.00780 | 14111 ft | 276 kts | 245° |
| 2026-05-07 14:55 | 38.10006 | 24.98545 | 14113 ft | 269 kts | 261° |
| 2026-05-07 14:56 | 38.09587 | 24.96214 | 14035 ft | 272 kts | 259° |
| 2026-05-07 14:56 | 38.09118 | 24.93919 | 13791 ft | 270 kts | 258° |
| 2026-05-07 14:56 | 38.08625 | 24.91628 | 13531 ft | 269 kts | 257° |
| 2026-05-07 14:56 | 38.08125 | 24.89339 | 13268 ft | 269 kts | 257° |
| 2026-05-07 14:57 | 38.07625 | 24.87054 | 13012 ft | 268 kts | 257° |
| 2026-05-07 14:57 | 38.07127 | 24.84772 | 12757 ft | 268 kts | 257° |
| 2026-05-07 14:57 | 38.06630 | 24.82493 | 12502 ft | 267 kts | 257° |
| 2026-05-07 14:57 | 38.06136 | 24.80219 | 12240 ft | 267 kts | 257° |
| 2026-05-07 14:58 | 38.05644 | 24.77949 | 12007 ft | 266 kts | 257° |
| 2026-05-07 14:58 | 38.05152 | 24.75686 | 11715 ft | 267 kts | 257° |
| 2026-05-07 14:58 | 38.04658 | 24.73414 | 11345 ft | 267 kts | 256° |
| 2026-05-07 14:58 | 38.04161 | 24.71125 | 10859 ft | 271 kts | 256° |
| 2026-05-07 14:59 | 38.03656 | 24.68809 | 10389 ft | 274 kts | 256° |
| 2026-05-07 14:59 | 38.03143 | 24.66462 | 9919 ft | 278 kts | 256° |
| 2026-05-07 14:59 | 38.02623 | 24.64082 | 9393 ft | 282 kts | 255° |
| 2026-05-07 14:59 | 38.02096 | 24.61678 | 8885 ft | 284 kts | 255° |
| 2026-05-07 15:00 | 38.01566 | 24.59263 | 8384 ft | 285 kts | 255° |
| 2026-05-07 15:00 | 38.01040 | 24.56870 | 7900 ft | 286 kts | 255° |
| 2026-05-07 15:00 | 38.00512 | 24.54461 | 7400 ft | 280 kts | 254° |
| 2026-05-07 15:00 | 37.99995 | 24.52108 | 6921 ft | 275 kts | 254° |
| 2026-05-07 15:01 | 37.99772 | 24.49736 | 6440 ft | 271 kts | 274° |
| 2026-05-07 15:01 | 38.00301 | 24.47464 | 5943 ft | 270 kts | 296° |
| 2026-05-07 15:01 | 38.01212 | 24.45391 | 5472 ft | 267 kts | 297° |
| 2026-05-07 15:01 | 38.02096 | 24.43403 | 5345 ft | 249 kts | 297° |
| 2026-05-07 15:02 | 38.02958 | 24.41459 | 5230 ft | 254 kts | 297° |
| 2026-05-07 15:02 | 38.03810 | 24.39530 | 5125 ft | 246 kts | 296° |
| 2026-05-07 15:02 | 38.04643 | 24.37627 | 5065 ft | 248 kts | 297° |
| 2026-05-07 15:02 | 38.05194 | 24.36361 | 5011 ft | 247 kts | 297° |
| 2026-05-07 15:03 | 38.06304 | 24.33822 | 4982 ft | 247 kts | 297° |
| 2026-05-07 15:03 | 38.06866 | 24.32536 | 4980 ft | 246 kts | 297° |
| 2026-05-07 15:03 | 38.07703 | 24.30623 | 4982 ft | 249 kts | 297° |
| 2026-05-07 15:03 | 38.08542 | 24.28704 | 4981 ft | 248 kts | 298° |
| 2026-05-07 15:04 | 38.09626 | 24.26234 | 4981 ft | 233 kts | 297° |
| 2026-05-07 15:04 | 38.10147 | 24.25047 | 4976 ft | 222 kts | 297° |
| 2026-05-07 15:04 | 38.10873 | 24.23391 | 4986 ft | 213 kts | 297° |
| 2026-05-07 15:04 | 38.11589 | 24.21757 | 4985 ft | 213 kts | 297° |
| 2026-05-07 15:05 | 38.12278 | 24.20183 | 4975 ft | 194 kts | 297° |
| 2026-05-07 15:05 | 38.12923 | 24.18708 | 4942 ft | 189 kts | 297° |
| 2026-05-07 15:05 | 38.13519 | 24.17235 | 4556 ft | 186 kts | 285° |
| 2026-05-07 15:05 | 38.13521 | 24.15625 | 4007 ft | 183 kts | 252° |
| 2026-05-07 15:06 | 38.12950 | 24.14199 | 3450 ft | 181 kts | 232° |
| 2026-05-07 15:06 | 38.12111 | 24.13046 | 3073 ft | 172 kts | 221° |
| 2026-05-07 15:06 | 38.11166 | 24.12120 | 2979 ft | 181 kts | 213° |
| 2026-05-07 15:06 | 38.10142 | 24.11252 | 2977 ft | 175 kts | 214° |
| 2026-05-07 15:07 | 38.09131 | 24.10348 | 2983 ft | 180 kts | 216° |
| 2026-05-07 15:07 | 38.08137 | 24.09407 | 2984 ft | 180 kts | 216° |
| 2026-05-07 15:07 | 38.07177 | 24.08489 | 2985 ft | 157 kts | 217° |
| 2026-05-07 15:07 | 38.06329 | 24.07677 | 2980 ft | 158 kts | 217° |
| 2026-05-07 15:08 | 38.05458 | 24.06843 | 2828 ft | 156 kts | 217° |
| 2026-05-07 15:08 | 38.04587 | 24.05995 | 2661 ft | 159 kts | 217° |
| 2026-05-07 15:08 | 38.03728 | 24.05150 | 2477 ft | 154 kts | 217° |
| 2026-05-07 15:08 | 38.02866 | 24.04295 | 2368 ft | 164 kts | 216° |
| 2026-05-07 15:09 | 38.01979 | 24.03453 | 2214 ft | 155 kts | 216° |
| 2026-05-07 15:09 | 38.01079 | 24.02601 | 1870 ft | 159 kts | 214° |
| 2026-05-07 15:09 | 38.00222 | 24.01796 | 1613 ft | 154 kts | 214° |
| 2026-05-07 15:09 | 37.99392 | 24.01007 | 1365 ft | 143 kts | 214° |
| 2026-05-07 15:10 | 37.98605 | 24.00286 | 1098 ft | 136 kts | 214° |
| 2026-05-07 15:10 | 37.97877 | 23.99590 | 966 ft | 125 kts | 214° |
| 2026-05-07 15:10 | 37.97180 | 23.98905 | 810 ft | 135 kts | 215° |
| 2026-05-07 15:10 | 37.96440 | 23.98203 | 670 ft | 128 kts | 214° |
| 2026-05-07 15:11 | 37.95758 | 23.97568 | 481 ft | 120 kts | 216° |
| 2026-05-07 15:11 | 37.95073 | 23.96914 | 333 ft | 124 kts | 217° |
| 2026-05-07 15:11 | 37.94486 | 23.96344 | 270 ft | 52 kts | 217° |
| 2026-05-07 15:11 | 37.94333 | 23.96207 | 272 ft | 24 kts | 215° |
| 2026-05-07 15:12 | 37.94200 | 23.96083 | 275 ft | 24 kts | 217° |